Portada
METAR-TAF:

METAR-TAF

Aeroports :

Al-Kuwait, Kuwait

latitud: 29-13N, longitud: 047-59E, altitud: 55 m

Observació

L'informe es va fer fa 10 minuts, a les 07:00 UTC
Vent 4 kt del Nord-Est
Temperatura 20°C
Humitat 88%
Pressió 1020 hPa
Visibilitat: 3500 m
Escasses núvols a una alçada de 2000 ft
Núvols disperses a una alçada de 4000 ft
Cel ennuvolat a una alçada de 8000 ft
pluja

METAR: OKBK 030700Z 04004KT 3500 -RA FEW020 SCT040 BKN080 20/18 Q1020 NOSIG

Hora: 10:10 (07:10 UTC)

Pronòstic

L'informe es va fer fa 2 hores i 25 minuts, a les 04:45 UTC
Pronòstic vàlid del 03 a les 06 UTC al 04 a les 12 UTC
Vent 8 kt del Nord/Nord-Est amb ràfegues de 18 kt
Visibilitat: 6000 m
Núvols disperses a una alçada de 4000 ft
Cel ennuvolat a una alçada de 8000 ft
Temporalment
l' 03 a les 06 UTC al 03 a les 12 UTC
Visibilitat: 3000 m
Escasses núvols a una alçada de 3000 ft, Cumulonimbus.

TAF: OKBK 030445Z 0306/0412 03008G18KT 6000 SCT040 BKN080 TEMPO 0306/0312 3000 TSRA/BR FEW030CB

Observacions i pronòstics meteorològics de més de 4000 aeroports (METAR i TAF).

Les estacions disponibles són els punts grocs i vermells al mapa.

Posi el ratolí al punt desitjat per veure el nom de l'estació.

Feu clic per veure les observacions i els pronòstics meteorològics.

Per canviar el mapa: feu clic els botons verds amb una creu de color negre per apropar; al botó verd amb un guió per allunyar la imatge; o en les fletxes verdes per a mapes adjacents.


METAR-TAF: